KBYG/BYG METAR and TAF weather

Enter ICAO airport designator
Station Type Date Time Source
KBYG METAR 2022/01/23 11:53 UTC NOAA

KBYG 231153Z AUTO 24005KT 10SM SCT090 02/M06 A3005 RMK AO2 SLP184 T00221056 10067 20011 58014


Station Type Date Time Source
KBYG Decoded METAR 2022/01/23 11:53 UTC NOAA

BUFFALO JOHNSON COUNTY AIRPORT , WY, United States (KBYG) 44-23N 106-43W 1497M
Jan 23, 2022 - 06:53 AM EST / 2022.01.23 1153 UTC
Wind: from the WSW (240 degrees) at 6 MPH (5 KT):0
Visibility: 10 mile(s):0
Sky conditions: partly cloudy
Temperature: 36.0 F (2.2 C)
Dew Point: 21.9 F (-5.6 C)
Relative Humidity: 56%
Pressure (altimeter): 30.05 in. Hg (1017 hPa)
Pressure tendency: 0.04 inches (1.4 hPa) lower than three hours ago
ob: KBYG 231153Z AUTO 24005KT 10SM SCT090 02/M06 A3005 RMK AO2 SLP184 T00221056 10067 20011 58014
cycle: 12

Station Type Date Time Source
KBYG TAF UTC NOAA

Error!

Example: see airport list